sensor_id;sensor_type;location;lat;lon;timestamp;P1;durP1;ratioP1;P2;durP2;ratioP2
48685;SDS011;34485;51.536;3.816;2023-02-18T00:00:04;67.45;;;19.05;;
48685;SDS011;34485;51.536;3.816;2023-02-18T00:02:32;63.57;;;18.23;;
48685;SDS011;34485;51.536;3.816;2023-02-18T00:04:58;72.90;;;18.88;;
48685;SDS011;34485;51.536;3.816;2023-02-18T00:07:24;74.03;;;20.73;;
48685;SDS011;34485;51.536;3.816;2023-02-18T00:09:49;63.67;;;19.77;;
48685;SDS011;34485;51.536;3.816;2023-02-18T00:12:15;69.33;;;19.87;;
48685;SDS011;34485;51.536;3.816;2023-02-18T00:14:41;70.25;;;19.70;;
48685;SDS011;34485;51.536;3.816;2023-02-18T00:17:06;64.43;;;20.00;;
48685;SDS011;34485;51.536;3.816;2023-02-18T00:19:32;59.17;;;18.35;;
48685;SDS011;34485;51.536;3.816;2023-02-18T00:21:58;60.67;;;17.83;;
48685;SDS011;34485;51.536;3.816;2023-02-18T00:24:23;54.23;;;18.70;;
48685;SDS011;34485;51.536;3.816;2023-02-18T00:26:52;49.35;;;16.65;;
48685;SDS011;34485;51.536;3.816;2023-02-18T00:29:18;55.85;;;18.98;;
48685;SDS011;34485;51.536;3.816;2023-02-18T00:31:44;48.60;;;17.25;;
48685;SDS011;34485;51.536;3.816;2023-02-18T00:34:10;54.43;;;18.53;;
48685;SDS011;34485;51.536;3.816;2023-02-18T00:36:37;47.08;;;15.88;;
48685;SDS011;34485;51.536;3.816;2023-02-18T00:39:04;46.25;;;16.55;;
48685;SDS011;34485;51.536;3.816;2023-02-18T00:41:32;50.33;;;18.70;;
48685;SDS011;34485;51.536;3.816;2023-02-18T00:43:59;51.47;;;17.10;;
48685;SDS011;34485;51.536;3.816;2023-02-18T00:46:25;49.47;;;17.33;;
48685;SDS011;34485;51.536;3.816;2023-02-18T00:48:51;47.53;;;18.55;;
48685;SDS011;34485;51.536;3.816;2023-02-18T00:51:17;47.92;;;17.95;;
48685;SDS011;34485;51.536;3.816;2023-02-18T00:53:43;46.23;;;16.50;;
48685;SDS011;34485;51.536;3.816;2023-02-18T00:56:09;53.67;;;17.38;;
48685;SDS011;34485;51.536;3.816;2023-02-18T00:58:34;54.23;;;19.43;;
48685;SDS011;34485;51.536;3.816;2023-02-18T01:01:01;51.92;;;20.42;;
48685;SDS011;34485;51.536;3.816;2023-02-18T01:03:27;49.42;;;20.42;;
48685;SDS011;34485;51.536;3.816;2023-02-18T01:05:52;45.27;;;19.93;;
48685;SDS011;34485;51.536;3.816;2023-02-18T01:08:18;55.22;;;19.95;;
48685;SDS011;34485;51.536;3.816;2023-02-18T01:10:46;52.15;;;21.40;;
48685;SDS011;34485;51.536;3.816;2023-02-18T01:13:14;59.27;;;22.73;;
48685;SDS011;34485;51.536;3.816;2023-02-18T01:15:40;56.80;;;21.02;;
48685;SDS011;34485;51.536;3.816;2023-02-18T01:18:07;59.95;;;22.70;;
48685;SDS011;34485;51.536;3.816;2023-02-18T01:20:34;58.75;;;21.23;;
48685;SDS011;34485;51.536;3.816;2023-02-18T01:23:00;48.83;;;22.63;;
48685;SDS011;34485;51.536;3.816;2023-02-18T01:25:26;59.00;;;23.00;;
48685;SDS011;34485;51.536;3.816;2023-02-18T01:27:52;51.60;;;25.15;;
48685;SDS011;34485;51.536;3.816;2023-02-18T01:30:18;54.23;;;25.27;;
48685;SDS011;34485;51.536;3.816;2023-02-18T01:32:43;61.90;;;27.75;;
48685;SDS011;34485;51.536;3.816;2023-02-18T01:35:10;57.10;;;26.53;;
48685;SDS011;34485;51.536;3.816;2023-02-18T01:37:37;58.38;;;26.27;;
48685;SDS011;34485;51.536;3.816;2023-02-18T01:40:04;57.15;;;26.67;;
48685;SDS011;34485;51.536;3.816;2023-02-18T01:42:31;54.85;;;26.70;;
48685;SDS011;34485;51.536;3.816;2023-02-18T01:50:32;46.92;;;24.58;;
48685;SDS011;34485;51.536;3.816;2023-02-18T01:53:01;50.13;;;24.33;;
48685;SDS011;34485;51.536;3.816;2023-02-18T01:55:27;51.72;;;24.67;;
48685;SDS011;34485;51.536;3.816;2023-02-18T01:57:52;53.90;;;24.53;;
48685;SDS011;34485;51.536;3.816;2023-02-18T02:00:18;51.78;;;23.45;;
48685;SDS011;34485;51.536;3.816;2023-02-18T02:02:50;48.92;;;24.75;;
48685;SDS011;34485;51.536;3.816;2023-02-18T02:05:17;44.60;;;23.67;;
48685;SDS011;34485;51.536;3.816;2023-02-18T02:07:45;42.22;;;21.38;;
48685;SDS011;34485;51.536;3.816;2023-02-18T02:10:14;38.65;;;19.95;;
48685;SDS011;34485;51.536;3.816;2023-02-18T02:12:51;30.52;;;16.90;;
48685;SDS011;34485;51.536;3.816;2023-02-18T02:15:29;34.88;;;15.88;;
48685;SDS011;34485;51.536;3.816;2023-02-18T02:48:21;25.15;;;13.40;;
48685;SDS011;34485;51.536;3.816;2023-02-18T02:51:14;23.90;;;12.77;;
48685;SDS011;34485;51.536;3.816;2023-02-18T02:53:45;26.17;;;13.32;;
48685;SDS011;34485;51.536;3.816;2023-02-18T02:56:15;30.67;;;13.97;;
48685;SDS011;34485;51.536;3.816;2023-02-18T02:58:43;35.95;;;17.38;;
48685;SDS011;34485;51.536;3.816;2023-02-18T03:01:26;40.15;;;17.92;;
48685;SDS011;34485;51.536;3.816;2023-02-18T03:09:27;25.88;;;12.73;;
48685;SDS011;34485;51.536;3.816;2023-02-18T03:18:20;33.97;;;15.02;;
48685;SDS011;34485;51.536;3.816;2023-02-18T03:24:06;19.73;;;12.25;;
48685;SDS011;34485;51.536;3.816;2023-02-18T03:26:38;26.75;;;10.63;;
48685;SDS011;34485;51.536;3.816;2023-02-18T03:29:09;25.87;;;12.40;;
48685;SDS011;34485;51.536;3.816;2023-02-18T03:31:38;18.30;;;9.93;;
48685;SDS011;34485;51.536;3.816;2023-02-18T03:34:08;23.45;;;11.40;;
48685;SDS011;34485;51.536;3.816;2023-02-18T03:36:37;24.98;;;10.57;;
48685;SDS011;34485;51.536;3.816;2023-02-18T03:39:06;24.42;;;11.05;;
48685;SDS011;34485;51.536;3.816;2023-02-18T03:41:36;16.03;;;9.33;;
48685;SDS011;34485;51.536;3.816;2023-02-18T03:44:03;27.23;;;9.68;;
48685;SDS011;34485;51.536;3.816;2023-02-18T03:46:30;14.77;;;8.23;;
48685;SDS011;34485;51.536;3.816;2023-02-18T03:48:57;23.88;;;10.40;;
48685;SDS011;34485;51.536;3.816;2023-02-18T03:51:22;30.60;;;11.77;;
48685;SDS011;34485;51.536;3.816;2023-02-18T03:53:48;35.15;;;11.90;;
48685;SDS011;34485;51.536;3.816;2023-02-18T03:56:14;36.17;;;11.63;;
48685;SDS011;34485;51.536;3.816;2023-02-18T03:58:40;37.63;;;13.23;;
48685;SDS011;34485;51.536;3.816;2023-02-18T04:01:05;56.77;;;16.50;;
48685;SDS011;34485;51.536;3.816;2023-02-18T04:03:31;42.00;;;13.80;;
48685;SDS011;34485;51.536;3.816;2023-02-18T04:05:56;41.63;;;14.23;;
48685;SDS011;34485;51.536;3.816;2023-02-18T04:08:22;46.50;;;13.88;;
48685;SDS011;34485;51.536;3.816;2023-02-18T04:10:48;38.47;;;14.00;;
48685;SDS011;34485;51.536;3.816;2023-02-18T04:13:13;36.87;;;13.70;;
48685;SDS011;34485;51.536;3.816;2023-02-18T04:15:39;50.92;;;15.60;;
48685;SDS011;34485;51.536;3.816;2023-02-18T04:18:05;37.80;;;14.90;;
48685;SDS011;34485;51.536;3.816;2023-02-18T04:20:30;43.40;;;15.95;;
48685;SDS011;34485;51.536;3.816;2023-02-18T04:22:56;39.70;;;14.97;;
48685;SDS011;34485;51.536;3.816;2023-02-18T04:25:21;41.75;;;14.98;;
48685;SDS011;34485;51.536;3.816;2023-02-18T04:27:47;29.53;;;11.73;;
48685;SDS011;34485;51.536;3.816;2023-02-18T04:30:13;38.07;;;12.10;;
48685;SDS011;34485;51.536;3.816;2023-02-18T04:32:38;40.55;;;13.00;;
48685;SDS011;34485;51.536;3.816;2023-02-18T04:35:04;44.00;;;15.40;;
48685;SDS011;34485;51.536;3.816;2023-02-18T04:37:30;28.50;;;9.77;;
48685;SDS011;34485;51.536;3.816;2023-02-18T04:39:56;30.67;;;12.13;;
48685;SDS011;34485;51.536;3.816;2023-02-18T04:42:21;52.10;;;13.27;;
48685;SDS011;34485;51.536;3.816;2023-02-18T04:44:47;32.45;;;12.40;;
48685;SDS011;34485;51.536;3.816;2023-02-18T04:47:13;37.63;;;12.10;;
48685;SDS011;34485;51.536;3.816;2023-02-18T04:49:38;31.35;;;10.68;;
48685;SDS011;34485;51.536;3.816;2023-02-18T04:52:04;33.87;;;10.60;;
48685;SDS011;34485;51.536;3.816;2023-02-18T04:54:30;41.38;;;11.00;;
48685;SDS011;34485;51.536;3.816;2023-02-18T04:56:56;38.17;;;10.93;;
48685;SDS011;34485;51.536;3.816;2023-02-18T04:59:21;35.92;;;9.85;;
48685;SDS011;34485;51.536;3.816;2023-02-18T05:01:47;34.87;;;10.03;;
48685;SDS011;34485;51.536;3.816;2023-02-18T05:04:13;26.85;;;8.93;;
48685;SDS011;34485;51.536;3.816;2023-02-18T05:06:38;35.37;;;8.50;;
48685;SDS011;34485;51.536;3.816;2023-02-18T05:09:04;28.85;;;8.20;;
48685;SDS011;34485;51.536;3.816;2023-02-18T05:11:30;38.80;;;8.87;;
48685;SDS011;34485;51.536;3.816;2023-02-18T05:13:56;30.65;;;8.60;;
48685;SDS011;34485;51.536;3.816;2023-02-18T05:16:21;22.30;;;10.13;;
48685;SDS011;34485;51.536;3.816;2023-02-18T05:18:47;36.33;;;8.95;;
48685;SDS011;34485;51.536;3.816;2023-02-18T05:21:13;24.70;;;8.07;;
48685;SDS011;34485;51.536;3.816;2023-02-18T05:23:38;39.97;;;7.87;;
48685;SDS011;34485;51.536;3.816;2023-02-18T05:26:04;29.90;;;7.13;;
48685;SDS011;34485;51.536;3.816;2023-02-18T05:28:30;30.27;;;8.80;;
48685;SDS011;34485;51.536;3.816;2023-02-18T05:30:55;41.92;;;6.43;;
48685;SDS011;34485;51.536;3.816;2023-02-18T05:33:21;30.53;;;7.00;;
48685;SDS011;34485;51.536;3.816;2023-02-18T05:35:47;40.25;;;7.63;;
48685;SDS011;34485;51.536;3.816;2023-02-18T05:38:13;38.42;;;6.18;;
48685;SDS011;34485;51.536;3.816;2023-02-18T05:40:38;46.00;;;6.97;;
48685;SDS011;34485;51.536;3.816;2023-02-18T05:43:04;35.10;;;6.87;;
48685;SDS011;34485;51.536;3.816;2023-02-18T05:45:29;34.95;;;6.70;;
48685;SDS011;34485;51.536;3.816;2023-02-18T05:47:55;36.00;;;5.43;;
48685;SDS011;34485;51.536;3.816;2023-02-18T05:50:21;31.98;;;6.82;;
48685;SDS011;34485;51.536;3.816;2023-02-18T05:52:47;34.50;;;5.40;;
48685;SDS011;34485;51.536;3.816;2023-02-18T05:55:12;30.27;;;5.43;;
48685;SDS011;34485;51.536;3.816;2023-02-18T05:57:38;18.57;;;5.67;;
48685;SDS011;34485;51.536;3.816;2023-02-18T06:00:04;36.50;;;5.85;;
48685;SDS011;34485;51.536;3.816;2023-02-18T06:02:32;35.50;;;5.53;;
48685;SDS011;34485;51.536;3.816;2023-02-18T06:04:57;29.60;;;5.47;;
48685;SDS011;34485;51.536;3.816;2023-02-18T06:07:23;28.63;;;4.30;;
48685;SDS011;34485;51.536;3.816;2023-02-18T06:09:48;30.80;;;5.22;;
48685;SDS011;34485;51.536;3.816;2023-02-18T06:12:14;26.30;;;4.27;;
48685;SDS011;34485;51.536;3.816;2023-02-18T06:14:40;22.02;;;5.15;;
48685;SDS011;34485;51.536;3.816;2023-02-18T06:17:06;24.53;;;4.67;;
48685;SDS011;34485;51.536;3.816;2023-02-18T06:19:33;20.63;;;3.83;;
48685;SDS011;34485;51.536;3.816;2023-02-18T06:21:59;28.75;;;4.93;;
48685;SDS011;34485;51.536;3.816;2023-02-18T06:24:25;24.33;;;5.43;;
48685;SDS011;34485;51.536;3.816;2023-02-18T06:26:50;51.30;;;6.63;;
48685;SDS011;34485;51.536;3.816;2023-02-18T06:29:16;21.17;;;4.63;;
48685;SDS011;34485;51.536;3.816;2023-02-18T06:31:41;20.60;;;4.60;;
48685;SDS011;34485;51.536;3.816;2023-02-18T06:34:07;18.77;;;4.30;;
48685;SDS011;34485;51.536;3.816;2023-02-18T06:36:33;25.57;;;4.77;;
48685;SDS011;34485;51.536;3.816;2023-02-18T06:38:58;26.70;;;5.43;;
48685;SDS011;34485;51.536;3.816;2023-02-18T06:41:26;25.33;;;5.20;;
48685;SDS011;34485;51.536;3.816;2023-02-18T06:43:52;22.40;;;4.95;;
48685;SDS011;34485;51.536;3.816;2023-02-18T06:46:17;29.30;;;5.77;;
48685;SDS011;34485;51.536;3.816;2023-02-18T06:48:43;32.93;;;6.40;;
48685;SDS011;34485;51.536;3.816;2023-02-18T06:51:09;25.48;;;5.82;;
48685;SDS011;34485;51.536;3.816;2023-02-18T06:53:34;29.13;;;5.87;;
48685;SDS011;34485;51.536;3.816;2023-02-18T06:56:00;22.83;;;4.95;;
48685;SDS011;34485;51.536;3.816;2023-02-18T06:58:25;36.53;;;7.23;;
48685;SDS011;34485;51.536;3.816;2023-02-18T07:00:51;31.98;;;6.13;;
48685;SDS011;34485;51.536;3.816;2023-02-18T07:03:17;23.17;;;5.30;;
48685;SDS011;34485;51.536;3.816;2023-02-18T07:05:43;29.33;;;6.10;;
48685;SDS011;34485;51.536;3.816;2023-02-18T07:08:08;30.40;;;5.07;;
48685;SDS011;34485;51.536;3.816;2023-02-18T07:10:34;29.42;;;5.22;;
48685;SDS011;34485;51.536;3.816;2023-02-18T07:13:00;24.07;;;5.43;;
48685;SDS011;34485;51.536;3.816;2023-02-18T07:15:25;38.95;;;5.15;;
48685;SDS011;34485;51.536;3.816;2023-02-18T07:17:52;22.83;;;5.27;;
48685;SDS011;34485;51.536;3.816;2023-02-18T07:20:18;28.98;;;5.43;;
48685;SDS011;34485;51.536;3.816;2023-02-18T07:22:44;26.30;;;6.35;;
48685;SDS011;34485;51.536;3.816;2023-02-18T07:25:10;23.70;;;4.13;;
48685;SDS011;34485;51.536;3.816;2023-02-18T07:27:36;25.53;;;5.17;;
48685;SDS011;34485;51.536;3.816;2023-02-18T07:30:01;24.77;;;4.57;;
48685;SDS011;34485;51.536;3.816;2023-02-18T07:32:27;22.30;;;4.43;;
48685;SDS011;34485;51.536;3.816;2023-02-18T07:34:53;25.85;;;4.75;;
48685;SDS011;34485;51.536;3.816;2023-02-18T07:37:19;20.13;;;3.90;;
48685;SDS011;34485;51.536;3.816;2023-02-18T07:39:44;33.80;;;5.25;;
48685;SDS011;34485;51.536;3.816;2023-02-18T07:42:10;33.07;;;6.13;;
48685;SDS011;34485;51.536;3.816;2023-02-18T07:44:38;21.60;;;5.20;;
48685;SDS011;34485;51.536;3.816;2023-02-18T07:47:04;28.27;;;4.60;;
48685;SDS011;34485;51.536;3.816;2023-02-18T07:49:31;15.57;;;3.80;;
48685;SDS011;34485;51.536;3.816;2023-02-18T07:51:57;16.43;;;4.00;;
48685;SDS011;34485;51.536;3.816;2023-02-18T07:57:45;26.52;;;5.10;;
48685;SDS011;34485;51.536;3.816;2023-02-18T08:02:50;12.18;;;4.45;;
48685;SDS011;34485;51.536;3.816;2023-02-18T08:05:15;12.37;;;4.00;;
48685;SDS011;34485;51.536;3.816;2023-02-18T08:07:41;19.27;;;4.10;;
48685;SDS011;34485;51.536;3.816;2023-02-18T08:10:07;20.27;;;4.10;;
48685;SDS011;34485;51.536;3.816;2023-02-18T08:12:33;17.17;;;3.70;;
48685;SDS011;34485;51.536;3.816;2023-02-18T08:14:58;21.43;;;3.43;;
48685;SDS011;34485;51.536;3.816;2023-02-18T08:17:24;16.77;;;4.10;;
48685;SDS011;34485;51.536;3.816;2023-02-18T08:19:49;14.25;;;3.33;;
48685;SDS011;34485;51.536;3.816;2023-02-18T08:22:15;14.47;;;3.53;;
48685;SDS011;34485;51.536;3.816;2023-02-18T08:24:41;17.00;;;4.07;;
48685;SDS011;34485;51.536;3.816;2023-02-18T08:27:06;17.97;;;4.03;;
48685;SDS011;34485;51.536;3.816;2023-02-18T08:29:32;16.27;;;4.63;;
48685;SDS011;34485;51.536;3.816;2023-02-18T08:31:57;12.65;;;3.15;;
48685;SDS011;34485;51.536;3.816;2023-02-18T08:34:23;17.10;;;4.07;;
48685;SDS011;34485;51.536;3.816;2023-02-18T08:36:49;16.50;;;3.67;;
48685;SDS011;34485;51.536;3.816;2023-02-18T08:39:15;20.35;;;4.38;;
48685;SDS011;34485;51.536;3.816;2023-02-18T08:41:40;13.73;;;3.77;;
48685;SDS011;34485;51.536;3.816;2023-02-18T08:44:06;12.83;;;3.67;;
48685;SDS011;34485;51.536;3.816;2023-02-18T08:46:31;6.47;;;2.85;;
48685;SDS011;34485;51.536;3.816;2023-02-18T08:48:57;18.93;;;4.17;;
48685;SDS011;34485;51.536;3.816;2023-02-18T08:51:23;10.97;;;2.97;;
48685;SDS011;34485;51.536;3.816;2023-02-18T08:53:50;12.13;;;2.85;;
48685;SDS011;34485;51.536;3.816;2023-02-18T08:56:15;11.60;;;3.83;;
48685;SDS011;34485;51.536;3.816;2023-02-18T08:58:41;15.03;;;2.80;;
48685;SDS011;34485;51.536;3.816;2023-02-18T09:01:09;10.60;;;4.15;;
48685;SDS011;34485;51.536;3.816;2023-02-18T09:03:35;15.75;;;3.92;;
48685;SDS011;34485;51.536;3.816;2023-02-18T09:06:01;17.57;;;3.83;;
48685;SDS011;34485;51.536;3.816;2023-02-18T09:08:27;12.55;;;3.25;;
48685;SDS011;34485;51.536;3.816;2023-02-18T09:10:57;13.95;;;3.70;;
48685;SDS011;34485;51.536;3.816;2023-02-18T09:13:25;12.57;;;2.95;;
48685;SDS011;34485;51.536;3.816;2023-02-18T09:15:55;16.75;;;4.65;;
48685;SDS011;34485;51.536;3.816;2023-02-18T09:18:21;15.97;;;3.83;;
48685;SDS011;34485;51.536;3.816;2023-02-18T09:20:47;10.50;;;2.95;;
48685;SDS011;34485;51.536;3.816;2023-02-18T09:23:12;20.97;;;3.70;;
48685;SDS011;34485;51.536;3.816;2023-02-18T09:25:39;11.77;;;3.60;;
48685;SDS011;34485;51.536;3.816;2023-02-18T09:28:05;13.53;;;4.10;;
48685;SDS011;34485;51.536;3.816;2023-02-18T09:30:30;16.90;;;3.38;;
48685;SDS011;34485;51.536;3.816;2023-02-18T09:32:56;9.83;;;3.47;;
48685;SDS011;34485;51.536;3.816;2023-02-18T09:35:21;12.18;;;3.40;;
48685;SDS011;34485;51.536;3.816;2023-02-18T09:37:47;10.53;;;3.13;;
48685;SDS011;34485;51.536;3.816;2023-02-18T09:40:26;8.03;;;2.50;;
48685;SDS011;34485;51.536;3.816;2023-02-18T09:42:56;9.75;;;3.30;;
48685;SDS011;34485;51.536;3.816;2023-02-18T09:45:22;13.48;;;3.20;;
48685;SDS011;34485;51.536;3.816;2023-02-18T09:47:49;14.88;;;3.53;;
48685;SDS011;34485;51.536;3.816;2023-02-18T09:52:52;7.30;;;3.57;;
48685;SDS011;34485;51.536;3.816;2023-02-18T09:55:22;18.48;;;3.80;;
48685;SDS011;34485;51.536;3.816;2023-02-18T09:58:11;11.30;;;2.70;;
48685;SDS011;34485;51.536;3.816;2023-02-18T10:00:43;9.68;;;3.58;;
48685;SDS011;34485;51.536;3.816;2023-02-18T10:03:16;11.77;;;3.43;;
48685;SDS011;34485;51.536;3.816;2023-02-18T10:08:29;10.80;;;3.00;;
48685;SDS011;34485;51.536;3.816;2023-02-18T10:11:00;11.05;;;3.25;;
48685;SDS011;34485;51.536;3.816;2023-02-18T10:13:30;13.13;;;3.60;;
48685;SDS011;34485;51.536;3.816;2023-02-18T10:15:58;17.90;;;3.38;;
48685;SDS011;34485;51.536;3.816;2023-02-18T10:18:28;16.63;;;4.07;;
48685;SDS011;34485;51.536;3.816;2023-02-18T10:21:08;10.82;;;3.20;;
48685;SDS011;34485;51.536;3.816;2023-02-18T10:26:58;10.70;;;2.67;;
48685;SDS011;34485;51.536;3.816;2023-02-18T10:29:25;12.18;;;3.58;;
48685;SDS011;34485;51.536;3.816;2023-02-18T10:31:56;14.03;;;3.23;;
48685;SDS011;34485;51.536;3.816;2023-02-18T10:34:39;20.83;;;3.58;;
48685;SDS011;34485;51.536;3.816;2023-02-18T10:42:24;16.45;;;3.30;;
48685;SDS011;34485;51.536;3.816;2023-02-18T10:48:14;8.27;;;2.85;;
48685;SDS011;34485;51.536;3.816;2023-02-18T10:50:46;13.43;;;3.97;;
48685;SDS011;34485;51.536;3.816;2023-02-18T10:53:32;16.75;;;3.00;;
48685;SDS011;34485;51.536;3.816;2023-02-18T10:55:58;12.05;;;3.78;;
48685;SDS011;34485;51.536;3.816;2023-02-18T11:01:52;18.15;;;3.63;;
48685;SDS011;34485;51.536;3.816;2023-02-18T11:04:36;17.67;;;3.38;;
48685;SDS011;34485;51.536;3.816;2023-02-18T11:07:05;16.10;;;2.92;;
48685;SDS011;34485;51.536;3.816;2023-02-18T11:09:41;16.83;;;4.35;;
48685;SDS011;34485;51.536;3.816;2023-02-18T11:14:49;15.02;;;4.05;;
48685;SDS011;34485;51.536;3.816;2023-02-18T11:17:29;22.30;;;5.40;;
48685;SDS011;34485;51.536;3.816;2023-02-18T11:19:56;15.73;;;3.70;;
48685;SDS011;34485;51.536;3.816;2023-02-18T11:22:29;20.17;;;3.65;;
48685;SDS011;34485;51.536;3.816;2023-02-18T11:25:00;14.90;;;3.53;;
48685;SDS011;34485;51.536;3.816;2023-02-18T11:27:37;17.05;;;3.85;;
48685;SDS011;34485;51.536;3.816;2023-02-18T11:30:52;14.13;;;3.42;;
48685;SDS011;34485;51.536;3.816;2023-02-18T11:33:03;18.10;;;4.00;;
48685;SDS011;34485;51.536;3.816;2023-02-18T11:35:33;16.67;;;4.40;;
48685;SDS011;34485;51.536;3.816;2023-02-18T11:38:01;16.63;;;4.53;;
48685;SDS011;34485;51.536;3.816;2023-02-18T11:40:38;21.25;;;4.38;;
48685;SDS011;34485;51.536;3.816;2023-02-18T11:43:14;12.35;;;3.22;;
48685;SDS011;34485;51.536;3.816;2023-02-18T11:45:41;12.35;;;3.08;;
48685;SDS011;34485;51.536;3.816;2023-02-18T11:50:49;22.07;;;4.00;;
48685;SDS011;34485;51.536;3.816;2023-02-18T11:53:26;23.73;;;5.60;;
48685;SDS011;34485;51.536;3.816;2023-02-18T11:55:58;19.60;;;4.72;;
48685;SDS011;34485;51.536;3.816;2023-02-18T11:58:33;18.30;;;3.72;;
48685;SDS011;34485;51.536;3.816;2023-02-18T12:01:11;14.70;;;3.97;;
48685;SDS011;34485;51.536;3.816;2023-02-18T12:06:44;25.70;;;7.22;;
48685;SDS011;34485;51.536;3.816;2023-02-18T12:09:35;19.17;;;5.05;;
48685;SDS011;34485;51.536;3.816;2023-02-18T12:12:19;21.05;;;4.72;;
48685;SDS011;34485;51.536;3.816;2023-02-18T12:14:53;17.27;;;5.03;;
48685;SDS011;34485;51.536;3.816;2023-02-18T12:17:29;18.27;;;4.67;;
48685;SDS011;34485;51.536;3.816;2023-02-18T12:26:34;11.75;;;4.00;;
48685;SDS011;34485;51.536;3.816;2023-02-18T12:32:01;16.27;;;4.77;;
48685;SDS011;34485;51.536;3.816;2023-02-18T12:37:41;20.83;;;4.28;;
48685;SDS011;34485;51.536;3.816;2023-02-18T12:40:36;23.98;;;5.35;;
48685;SDS011;34485;51.536;3.816;2023-02-18T12:46:01;20.17;;;4.97;;
48685;SDS011;34485;51.536;3.816;2023-02-18T12:48:51;22.67;;;4.07;;
48685;SDS011;34485;51.536;3.816;2023-02-18T12:51:43;17.08;;;3.47;;
48685;SDS011;34485;51.536;3.816;2023-02-18T13:03:09;17.02;;;3.70;;
48685;SDS011;34485;51.536;3.816;2023-02-18T13:11:17;17.95;;;4.18;;
48685;SDS011;34485;51.536;3.816;2023-02-18T13:16:25;21.58;;;4.78;;
48685;SDS011;34485;51.536;3.816;2023-02-18T13:21:26;14.73;;;4.63;;
48685;SDS011;34485;51.536;3.816;2023-02-18T13:26:28;24.33;;;4.50;;
48685;SDS011;34485;51.536;3.816;2023-02-18T13:31:51;16.02;;;4.45;;
48685;SDS011;34485;51.536;3.816;2023-02-18T13:39:15;14.27;;;4.68;;
48685;SDS011;34485;51.536;3.816;2023-02-18T13:41:44;22.80;;;5.22;;
48685;SDS011;34485;51.536;3.816;2023-02-18T13:46:50;14.23;;;2.97;;
48685;SDS011;34485;51.536;3.816;2023-02-18T13:49:17;17.23;;;4.40;;
48685;SDS011;34485;51.536;3.816;2023-02-18T13:51:47;11.75;;;3.15;;
48685;SDS011;34485;51.536;3.816;2023-02-18T13:54:17;21.38;;;4.75;;
48685;SDS011;34485;51.536;3.816;2023-02-18T13:56:50;18.43;;;4.37;;
48685;SDS011;34485;51.536;3.816;2023-02-18T13:59:21;15.30;;;4.45;;
48685;SDS011;34485;51.536;3.816;2023-02-18T14:02:21;34.88;;;5.82;;
48685;SDS011;34485;51.536;3.816;2023-02-18T14:07:51;21.52;;;4.18;;
48685;SDS011;34485;51.536;3.816;2023-02-18T14:16:17;22.48;;;4.88;;
48685;SDS011;34485;51.536;3.816;2023-02-18T14:26:21;20.88;;;5.22;;
48685;SDS011;34485;51.536;3.816;2023-02-18T14:29:03;15.77;;;3.72;;
48685;SDS011;34485;51.536;3.816;2023-02-18T14:31:34;21.03;;;3.73;;
48685;SDS011;34485;51.536;3.816;2023-02-18T14:42:48;26.20;;;6.20;;
48685;SDS011;34485;51.536;3.816;2023-02-18T14:51:22;21.00;;;3.65;;
48685;SDS011;34485;51.536;3.816;2023-02-18T14:53:49;13.45;;;3.40;;
48685;SDS011;34485;51.536;3.816;2023-02-18T14:56:17;20.48;;;5.50;;
48685;SDS011;34485;51.536;3.816;2023-02-18T14:58:46;18.53;;;4.93;;
48685;SDS011;34485;51.536;3.816;2023-02-18T15:01:21;14.85;;;3.53;;
48685;SDS011;34485;51.536;3.816;2023-02-18T15:03:49;24.27;;;5.55;;
48685;SDS011;34485;51.536;3.816;2023-02-18T15:06:30;17.00;;;5.45;;
48685;SDS011;34485;51.536;3.816;2023-02-18T15:08:58;11.18;;;3.67;;
48685;SDS011;34485;51.536;3.816;2023-02-18T15:11:35;18.63;;;4.17;;
48685;SDS011;34485;51.536;3.816;2023-02-18T15:14:13;25.25;;;4.43;;
48685;SDS011;34485;51.536;3.816;2023-02-18T15:16:46;14.45;;;4.10;;
48685;SDS011;34485;51.536;3.816;2023-02-18T15:19:14;15.65;;;4.35;;
48685;SDS011;34485;51.536;3.816;2023-02-18T15:21:45;16.75;;;3.30;;
48685;SDS011;34485;51.536;3.816;2023-02-18T15:27:14;20.77;;;4.35;;
48685;SDS011;34485;51.536;3.816;2023-02-18T15:29:42;17.65;;;4.65;;
48685;SDS011;34485;51.536;3.816;2023-02-18T15:32:16;22.37;;;4.47;;
48685;SDS011;34485;51.536;3.816;2023-02-18T15:34:52;16.75;;;4.10;;
48685;SDS011;34485;51.536;3.816;2023-02-18T15:37:26;21.75;;;5.30;;
48685;SDS011;34485;51.536;3.816;2023-02-18T15:43:28;17.73;;;3.78;;
48685;SDS011;34485;51.536;3.816;2023-02-18T15:45:56;12.23;;;4.37;;
48685;SDS011;34485;51.536;3.816;2023-02-18T15:48:41;16.70;;;4.25;;
48685;SDS011;34485;51.536;3.816;2023-02-18T15:51:10;18.95;;;4.82;;
48685;SDS011;34485;51.536;3.816;2023-02-18T15:53:44;21.83;;;3.72;;
48685;SDS011;34485;51.536;3.816;2023-02-18T15:56:14;14.25;;;4.43;;
48685;SDS011;34485;51.536;3.816;2023-02-18T15:58:45;16.80;;;4.67;;
48685;SDS011;34485;51.536;3.816;2023-02-18T16:01:27;15.60;;;5.43;;
48685;SDS011;34485;51.536;3.816;2023-02-18T16:03:54;21.42;;;5.43;;
48685;SDS011;34485;51.536;3.816;2023-02-18T16:06:21;23.77;;;5.03;;
48685;SDS011;34485;51.536;3.816;2023-02-18T16:09:02;24.27;;;4.93;;
48685;SDS011;34485;51.536;3.816;2023-02-18T16:11:40;24.10;;;5.10;;
48685;SDS011;34485;51.536;3.816;2023-02-18T16:24:55;20.67;;;5.05;;
48685;SDS011;34485;51.536;3.816;2023-02-18T16:27:26;20.73;;;5.40;;
48685;SDS011;34485;51.536;3.816;2023-02-18T16:29:56;18.50;;;4.57;;
48685;SDS011;34485;51.536;3.816;2023-02-18T16:32:25;23.73;;;5.00;;
48685;SDS011;34485;51.536;3.816;2023-02-18T16:34:51;20.23;;;4.83;;
48685;SDS011;34485;51.536;3.816;2023-02-18T16:37:16;24.60;;;5.10;;
48685;SDS011;34485;51.536;3.816;2023-02-18T16:40:00;20.77;;;4.97;;
48685;SDS011;34485;51.536;3.816;2023-02-18T16:42:26;21.38;;;5.53;;
48685;SDS011;34485;51.536;3.816;2023-02-18T16:44:51;25.17;;;5.77;;
48685;SDS011;34485;51.536;3.816;2023-02-18T16:47:17;19.10;;;5.72;;
48685;SDS011;34485;51.536;3.816;2023-02-18T16:49:44;29.17;;;5.87;;
48685;SDS011;34485;51.536;3.816;2023-02-18T16:52:12;29.35;;;6.03;;
48685;SDS011;34485;51.536;3.816;2023-02-18T17:00:53;17.23;;;5.43;;
48685;SDS011;34485;51.536;3.816;2023-02-18T17:03:19;17.40;;;5.10;;
48685;SDS011;34485;51.536;3.816;2023-02-18T17:05:45;28.40;;;5.38;;
48685;SDS011;34485;51.536;3.816;2023-02-18T17:10:43;28.13;;;6.07;;
48685;SDS011;34485;51.536;3.816;2023-02-18T17:13:13;19.50;;;6.90;;
48685;SDS011;34485;51.536;3.816;2023-02-18T17:15:39;23.77;;;5.43;;
48685;SDS011;34485;51.536;3.816;2023-02-18T17:18:07;28.70;;;5.68;;
48685;SDS011;34485;51.536;3.816;2023-02-18T17:20:33;24.83;;;5.70;;
48685;SDS011;34485;51.536;3.816;2023-02-18T17:22:58;21.52;;;5.95;;
48685;SDS011;34485;51.536;3.816;2023-02-18T17:25:34;22.53;;;6.03;;
48685;SDS011;34485;51.536;3.816;2023-02-18T17:28:03;17.10;;;5.57;;
48685;SDS011;34485;51.536;3.816;2023-02-18T17:30:29;22.80;;;5.30;;
48685;SDS011;34485;51.536;3.816;2023-02-18T17:32:59;19.38;;;5.00;;
48685;SDS011;34485;51.536;3.816;2023-02-18T17:35:26;24.00;;;5.93;;
48685;SDS011;34485;51.536;3.816;2023-02-18T17:37:52;23.00;;;6.57;;
48685;SDS011;34485;51.536;3.816;2023-02-18T17:40:19;16.42;;;4.47;;
48685;SDS011;34485;51.536;3.816;2023-02-18T17:42:50;23.88;;;5.95;;
48685;SDS011;34485;51.536;3.816;2023-02-18T17:45:41;28.33;;;5.97;;
48685;SDS011;34485;51.536;3.816;2023-02-18T17:48:10;27.50;;;7.03;;
48685;SDS011;34485;51.536;3.816;2023-02-18T17:50:35;19.60;;;5.82;;